Time;durP1;ratioP1;P1;durP2;ratioP2;P2;SDS_P1;SDS_P2;PMS_P1;PMS_P2;Temp;Humidity;BMP_temperature;BMP_pressure;BME280_temperature;BME280_humidity;BME280_pressure;Samples;Min_cycle;Max_cycle;Signal;HPM_P1;HPM_P2
2023/09/25 00:00:35;;;;;;;3.72;1.92;;;16.60;84.10;;;;;;5073905;28;20036;-72
2023/09/25 00:03:03;;;;;;;4.22;1.92;;;16.60;84.10;;;;;;5075900;28;20449;-70
2023/09/25 00:05:30;;;;;;;2.83;1.80;;;16.60;84.10;;;;;;5075702;28;20032;-70
2023/09/25 00:07:56;;;;;;;2.92;1.70;;;16.60;84.40;;;;;;5075687;28;20044;-70
2023/09/25 00:10:23;;;;;;;3.13;1.73;;;16.50;84.80;;;;;;5093485;28;20024;-70
2023/09/25 00:12:48;;;;;;;5.32;1.92;;;16.50;84.60;;;;;;5095377;28;20026;-70
2023/09/25 00:15:15;;;;;;;2.38;1.65;;;16.50;84.70;;;;;;5095728;28;20384;-68
2023/09/25 00:17:42;;;;;;;3.13;1.98;;;16.50;84.70;;;;;;5095186;28;20028;-70
2023/09/25 00:20:10;;;;;;;3.42;1.60;;;16.60;84.60;;;;;;5095758;28;20024;-70
2023/09/25 00:22:42;;;;;;;3.58;1.58;;;16.50;84.70;;;;;;5095546;28;20032;-70
2023/09/25 00:25:08;;;;;;;3.97;1.85;;;16.50;84.80;;;;;;5095608;28;20051;-70
2023/09/25 00:27:33;;;;;;;2.78;2.08;;;16.50;85.10;;;;;;5095498;28;20469;-70
2023/09/25 00:30:00;;;;;;;3.83;1.90;;;16.50;85.30;;;;;;5093821;28;20028;-70
2023/09/25 00:32:27;;;;;;;2.22;1.70;;;16.50;85.50;;;;;;5095428;28;20059;-70
2023/09/25 00:34:53;;;;;;;1.92;1.80;;;16.40;85.60;;;;;;5095016;28;20480;-70
2023/09/25 00:37:19;;;;;;;2.42;1.73;;;16.40;85.60;;;;;;5095347;28;20028;-70
2023/09/25 00:39:45;;;;;;;2.35;2.10;;;16.50;85.50;;;;;;5094937;28;20035;-70
2023/09/25 00:42:11;;;;;;;3.05;1.85;;;16.50;85.60;;;;;;5095325;28;20032;-70
2023/09/25 00:44:37;;;;;;;4.13;1.95;;;16.50;85.70;;;;;;5095227;28;20031;-70
2023/09/25 00:47:05;;;;;;;3.22;1.85;;;16.50;85.60;;;;;;5094690;28;20115;-70
2023/09/25 00:49:32;;;;;;;2.67;1.98;;;16.50;85.70;;;;;;5095085;28;20024;-70
2023/09/25 00:51:59;;;;;;;4.05;1.77;;;16.50;85.80;;;;;;5094413;28;20032;-70
2023/09/25 00:54:25;;;;;;;3.40;2.35;;;16.50;85.90;;;;;;5095209;28;20059;-69
2023/09/25 00:56:51;;;;;;;6.18;1.85;;;16.50;86.20;;;;;;5094558;28;20396;-69
2023/09/25 00:59:18;;;;;;;3.00;1.83;;;16.40;86.10;;;;;;5094945;28;20032;-69
2023/09/25 01:01:44;;;;;;;2.17;1.75;;;16.40;86.30;;;;;;5094472;28;20028;-71
2023/09/25 01:04:10;;;;;;;4.07;1.98;;;16.40;86.70;;;;;;5094789;28;20072;-70
2023/09/25 01:06:36;;;;;;;3.30;1.95;;;16.40;86.80;;;;;;5091291;28;20388;-69
2023/09/25 01:09:03;;;;;;;4.68;2.00;;;16.40;86.90;;;;;;5094291;28;20032;-70
2023/09/25 01:11:28;;;;;;;3.28;2.10;;;16.40;86.80;;;;;;5094541;28;20114;-70
2023/09/25 01:13:55;;;;;;;1.88;1.67;;;16.30;87.00;;;;;;5094220;28;20028;-70
2023/09/25 01:16:22;;;;;;;2.38;1.77;;;16.30;87.20;;;;;;5094471;28;20028;-70
2023/09/25 01:18:47;;;;;;;3.10;1.90;;;16.30;87.40;;;;;;5094208;28;20108;-70
2023/09/25 01:21:13;;;;;;;4.55;1.90;;;16.30;87.40;;;;;;5094593;28;20070;-70
2023/09/25 01:23:39;;;;;;;3.88;1.88;;;16.30;87.50;;;;;;5094501;28;20024;-70
2023/09/25 01:26:05;;;;;;;2.60;1.83;;;16.30;87.40;;;;;;5093812;28;20422;-70
2023/09/25 01:28:31;;;;;;;3.65;2.00;;;16.30;87.50;;;;;;5094752;28;20067;-70
2023/09/25 01:30:58;;;;;;;3.25;1.80;;;16.20;87.50;;;;;;5093932;28;20051;-70
2023/09/25 01:33:25;;;;;;;4.20;2.15;;;16.30;87.80;;;;;;5094262;28;20051;-70
2023/09/25 01:35:51;;;;;;;2.50;1.77;;;16.20;87.90;;;;;;5079885;28;20374;-70
2023/09/25 01:38:17;;;;;;;2.65;2.08;;;16.20;88.20;;;;;;5073871;28;20039;-70
2023/09/25 01:40:42;;;;;;;3.28;2.13;;;16.20;88.60;;;;;;5073853;28;20035;-71
2023/09/25 01:43:08;;;;;;;4.03;1.80;;;16.20;88.70;;;;;;5073908;28;20020;-69
2023/09/25 01:45:34;;;;;;;4.38;1.90;;;16.20;88.60;;;;;;5073621;28;20025;-69
2023/09/25 01:47:59;;;;;;;2.70;1.90;;;16.10;89.10;;;;;;5073333;28;20024;-69
2023/09/25 01:50:27;;;;;;;2.80;2.00;;;16.10;88.90;;;;;;5073416;28;20028;-70
2023/09/25 01:52:54;;;;;;;5.10;1.92;;;16.10;89.10;;;;;;5073243;28;20028;-69
2023/09/25 01:55:20;;;;;;;4.30;2.05;;;16.10;89.30;;;;;;5073430;28;20113;-69
2023/09/25 01:57:46;;;;;;;2.70;1.67;;;16.10;89.60;;;;;;5073148;28;20119;-69
2023/09/25 02:00:12;;;;;;;2.78;1.95;;;16.10;89.60;;;;;;5073728;28;20056;-69
2023/09/25 02:02:39;;;;;;;3.75;1.98;;;16.00;90.00;;;;;;5073316;28;20058;-69
2023/09/25 02:05:05;;;;;;;4.15;1.92;;;16.10;90.00;;;;;;5072995;28;20381;-69
2023/09/25 02:07:32;;;;;;;4.30;1.90;;;16.10;89.70;;;;;;5073091;28;20458;-69
2023/09/25 02:09:57;;;;;;;2.22;1.80;;;16.00;89.90;;;;;;5072863;28;20159;-69
2023/09/25 02:12:23;;;;;;;2.78;1.80;;;16.00;90.00;;;;;;5073224;28;20464;-69
2023/09/25 02:14:51;;;;;;;3.28;1.98;;;16.00;90.20;;;;;;5073874;28;20085;-70
2023/09/25 02:17:16;;;;;;;1.95;1.73;;;16.00;90.40;;;;;;5073546;28;20036;-69
2023/09/25 02:19:42;;;;;;;2.20;1.73;;;16.00;90.40;;;;;;5073471;28;20037;-69
2023/09/25 02:22:07;;;;;;;4.75;1.80;;;16.00;90.40;;;;;;5071882;28;20087;-69
2023/09/25 02:24:37;;;;;;;2.25;1.83;;;16.00;90.40;;;;;;5071813;28;20104;-69
2023/09/25 02:27:03;;;;;;;1.70;1.50;;;16.00;90.40;;;;;;5072880;28;20037;-69
2023/09/25 02:29:29;;;;;;;4.78;1.98;;;16.00;90.40;;;;;;5072683;28;20107;-69
2023/09/25 02:31:55;;;;;;;2.53;1.92;;;16.00;90.40;;;;;;5072555;28;20029;-69
2023/09/25 02:34:21;;;;;;;3.13;2.10;;;16.00;90.50;;;;;;5073075;28;20036;-69
2023/09/25 02:36:46;;;;;;;4.07;1.67;;;15.90;90.50;;;;;;5072524;28;20108;-69
2023/09/25 02:39:13;;;;;;;2.67;1.95;;;15.90;90.70;;;;;;5073183;28;20028;-69
2023/09/25 02:41:39;;;;;;;2.50;1.90;;;15.90;90.80;;;;;;5072859;28;20031;-69
2023/09/25 02:44:05;;;;;;;2.63;1.80;;;15.90;91.00;;;;;;5072482;28;20473;-69
2023/09/25 02:46:30;;;;;;;2.50;1.80;;;15.90;91.10;;;;;;5072876;28;20063;-69
2023/09/25 02:48:56;;;;;;;2.95;2.13;;;15.80;91.30;;;;;;5071171;28;20029;-69
2023/09/25 02:51:22;;;;;;;3.10;2.08;;;15.70;91.50;;;;;;5072465;28;20055;-69
2023/09/25 02:53:48;;;;;;;4.35;2.00;;;15.70;91.70;;;;;;5072508;28;20020;-69
2023/09/25 02:56:13;;;;;;;3.13;1.80;;;15.70;91.80;;;;;;5072530;28;20087;-69
2023/09/25 02:58:39;;;;;;;3.50;2.10;;;15.70;91.90;;;;;;5072351;28;20035;-70
2023/09/25 03:01:05;;;;;;;2.63;1.90;;;15.60;92.10;;;;;;5074839;28;20055;-69
2023/09/25 03:03:30;;;;;;;6.28;1.83;;;15.60;92.10;;;;;;5072770;28;20107;-69
2023/09/25 03:05:56;;;;;;;3.67;1.88;;;15.60;92.20;;;;;;5072342;28;20024;-71
2023/09/25 03:08:22;;;;;;;2.55;2.00;;;15.50;92.50;;;;;;5072294;28;20393;-70
2023/09/25 03:10:47;;;;;;;4.00;2.15;;;15.50;92.60;;;;;;5072579;28;20393;-70
2023/09/25 03:13:13;;;;;;;6.20;2.30;;;15.50;92.70;;;;;;5071867;28;20039;-70
2023/09/25 03:15:39;;;;;;;3.10;2.03;;;15.50;92.90;;;;;;5072250;28;20055;-70
2023/09/25 03:18:05;;;;;;;2.83;2.20;;;15.40;93.00;;;;;;5071735;28;20111;-70
2023/09/25 03:20:30;;;;;;;2.13;1.92;;;15.40;93.20;;;;;;5072629;28;20024;-70
2023/09/25 03:22:56;;;;;;;4.20;2.80;;;15.30;93.30;;;;;;5072097;28;20031;-70
2023/09/25 03:25:22;;;;;;;2.78;2.25;;;15.30;93.50;;;;;;5072949;28;20024;-70
2023/09/25 03:27:49;;;;;;;5.22;2.17;;;15.20;93.80;;;;;;5071092;28;20033;-70
2023/09/25 03:30:15;;;;;;;5.03;2.50;;;15.20;94.00;;;;;;5084767;28;20050;-70
2023/09/25 03:32:41;;;;;;;4.32;2.28;;;15.20;94.10;;;;;;5092484;28;20020;-70
2023/09/25 03:35:07;;;;;;;4.20;2.15;;;15.20;94.40;;;;;;5094022;28;20020;-70
2023/09/25 03:37:33;;;;;;;5.43;2.38;;;15.10;94.60;;;;;;5095317;28;20040;-70
2023/09/25 03:39:59;;;;;;;3.83;2.47;;;15.10;94.60;;;;;;5096078;28;20453;-70
2023/09/25 03:42:25;;;;;;;3.63;2.00;;;15.00;94.80;;;;;;5096758;28;20028;-70
2023/09/25 03:44:51;;;;;;;3.67;2.30;;;15.00;95.10;;;;;;5096382;28;20115;-70
2023/09/25 03:47:18;;;;;;;3.65;2.35;;;15.00;95.00;;;;;;5095941;28;20107;-70
2023/09/25 03:49:44;;;;;;;2.97;2.28;;;15.00;95.20;;;;;;5096165;28;20103;-69
2023/09/25 03:52:10;;;;;;;3.70;2.08;;;15.00;95.20;;;;;;5095910;28;20097;-70
2023/09/25 03:54:35;;;;;;;3.45;2.25;;;14.90;95.40;;;;;;5095968;28;20028;-70
2023/09/25 03:57:01;;;;;;;6.38;2.25;;;15.00;95.50;;;;;;5095259;28;20444;-70
2023/09/25 03:59:26;;;;;;;5.50;2.30;;;15.00;95.70;;;;;;5096479;28;20032;-70
2023/09/25 04:01:52;;;;;;;5.05;2.40;;;14.90;95.60;;;;;;5095943;28;20028;-70
2023/09/25 04:04:18;;;;;;;4.30;2.38;;;14.90;95.90;;;;;;5095921;28;20020;-70
2023/09/25 04:06:43;;;;;;;4.82;2.22;;;14.90;95.90;;;;;;5095650;28;20043;-70
2023/09/25 04:09:10;;;;;;;5.18;2.78;;;14.90;95.90;;;;;;5095468;28;20436;-70
2023/09/25 04:11:35;;;;;;;5.68;2.88;;;14.90;96.00;;;;;;5094664;28;20028;-68
2023/09/25 04:14:02;;;;;;;4.18;2.10;;;14.90;96.10;;;;;;5092325;28;20016;-69
2023/09/25 04:16:33;;;;;;;3.38;2.28;;;14.90;96.20;;;;;;5095429;28;20117;-69
2023/09/25 04:18:59;;;;;;;4.68;2.60;;;14.80;96.30;;;;;;5095453;28;20050;-69
2023/09/25 04:21:25;;;;;;;5.30;3.08;;;14.80;96.60;;;;;;5095720;28;20032;-69
2023/09/25 04:23:50;;;;;;;5.57;2.60;;;14.70;96.90;;;;;;5095382;28;20516;-69
2023/09/25 04:26:16;;;;;;;6.13;2.40;;;14.70;97.10;;;;;;5094856;28;20050;-69
2023/09/25 04:28:42;;;;;;;6.28;2.97;;;14.70;97.30;;;;;;5095510;28;20032;-69
2023/09/25 04:31:09;;;;;;;3.40;2.35;;;14.70;97.50;;;;;;5095099;28;20103;-69
2023/09/25 04:33:36;;;;;;;4.75;2.63;;;14.70;97.40;;;;;;5095196;28;20032;-69
2023/09/25 04:36:02;;;;;;;5.00;2.58;;;14.70;97.50;;;;;;5093793;28;20036;-69
2023/09/25 04:38:31;;;;;;;5.07;3.00;;;14.70;97.60;;;;;;5095382;28;20039;-69
2023/09/25 04:40:57;;;;;;;9.63;3.85;;;14.70;97.50;;;;;;5095472;28;20028;-71
2023/09/25 04:43:23;;;;;;;5.20;2.92;;;14.70;97.60;;;;;;5096052;28;20479;-70
2023/09/25 04:45:52;;;;;;;7.03;3.17;;;14.70;97.80;;;;;;5094887;28;20106;-70
2023/09/25 04:48:24;;;;;;;3.58;2.72;;;14.80;97.90;;;;;;5094749;28;20085;-70
2023/09/25 04:50:49;;;;;;;5.97;2.88;;;14.70;98.20;;;;;;5095152;28;20028;-70
2023/09/25 04:53:15;;;;;;;7.68;2.92;;;14.70;98.20;;;;;;5094408;28;20111;-70
2023/09/25 04:55:41;;;;;;;4.00;2.70;;;14.70;98.30;;;;;;5091216;28;20373;-70
2023/09/25 04:58:08;;;;;;;6.05;2.78;;;14.70;98.70;;;;;;5094600;28;20032;-70
2023/09/25 05:00:33;;;;;;;7.38;3.00;;;14.70;98.90;;;;;;5094825;28;20573;-71
2023/09/25 05:03:00;;;;;;;6.18;2.70;;;14.60;99.30;;;;;;5094531;28;20027;-68
2023/09/25 05:05:26;;;;;;;5.93;2.95;;;14.70;99.30;;;;;;5094515;28;20028;-69
2023/09/25 05:07:54;;;;;;;5.57;2.90;;;14.70;99.20;;;;;;5093694;28;20491;-70
2023/09/25 05:10:22;;;;;;;8.88;3.40;;;14.70;99.30;;;;;;5094436;28;20024;-70
2023/09/25 05:12:48;;;;;;;5.15;2.90;;;14.70;99.30;;;;;;5094660;28;20514;-70
2023/09/25 05:15:15;;;;;;;4.43;2.88;;;14.80;99.30;;;;;;5093970;28;20024;-70
2023/09/25 05:17:41;;;;;;;5.57;2.85;;;14.70;99.20;;;;;;5094475;28;20039;-70
2023/09/25 05:20:16;;;;;;;5.38;2.92;;;14.70;99.20;;;;;;5094184;28;20039;-71
2023/09/25 05:22:44;;;;;;;6.82;2.70;;;14.70;99.10;;;;;;5094612;28;20141;-70
2023/09/25 05:25:11;;;;;;;5.63;2.95;;;14.70;99.20;;;;;;5094023;28;20024;-71
2023/09/25 05:27:39;;;;;;;7.10;3.17;;;14.70;99.20;;;;;;5094395;28;20020;-70
2023/09/25 05:30:09;;;;;;;6.43;2.92;;;14.80;99.20;;;;;;5090352;28;20026;-71
2023/09/25 05:32:35;;;;;;;4.93;2.88;;;14.80;99.00;;;;;;5074051;28;20028;-70
2023/09/25 05:35:01;;;;;;;4.97;2.80;;;14.80;99.30;;;;;;5073880;28;20025;-68
2023/09/25 05:37:27;;;;;;;5.10;2.90;;;14.80;99.10;;;;;;5073726;28;20123;-70
2023/09/25 05:39:53;;;;;;;7.15;3.15;;;14.80;99.00;;;;;;5073482;28;20139;-70
2023/09/25 05:42:18;;;;;;;5.97;3.45;;;14.90;99.10;;;;;;5073390;28;20086;-70
2023/09/25 05:44:44;;;;;;;8.82;3.20;;;14.90;98.90;;;;;;5074087;28;20380;-70
2023/09/25 05:47:10;;;;;;;6.43;3.30;;;14.90;99.00;;;;;;5073173;28;20036;-71
2023/09/25 05:49:35;;;;;;;11.05;3.05;;;15.00;98.90;;;;;;5073533;28;20032;-70
2023/09/25 05:52:01;;;;;;;5.90;3.10;;;15.00;98.70;;;;;;5073433;28;20024;-72
2023/09/25 05:54:26;;;;;;;5.07;2.78;;;15.10;98.50;;;;;;5073281;28;20462;-70
2023/09/25 05:56:53;;;;;;;3.25;2.72;;;15.20;98.30;;;;;;5072505;28;20040;-70
2023/09/25 05:59:19;;;;;;;7.18;3.03;;;15.20;98.10;;;;;;5072659;28;20072;-70
2023/09/25 06:01:44;;;;;;;4.50;3.22;;;15.20;98.10;;;;;;5073653;28;20059;-70
2023/09/25 06:04:10;;;;;;;5.78;2.88;;;15.30;98.10;;;;;;5072703;28;20093;-70
2023/09/25 06:06:36;;;;;;;6.50;2.83;;;15.20;98.20;;;;;;5075735;28;20024;-70
2023/09/25 06:09:02;;;;;;;4.63;3.17;;;15.30;97.90;;;;;;5073199;28;20515;-70
2023/09/25 06:11:28;;;;;;;4.53;2.42;;;15.30;98.10;;;;;;5073226;28;20473;-70
2023/09/25 06:13:54;;;;;;;4.93;3.15;;;15.30;97.90;;;;;;5073247;28;20036;-70
2023/09/25 06:16:20;;;;;;;5.40;2.72;;;15.30;98.00;;;;;;5071477;28;20144;-70
2023/09/25 06:18:47;;;;;;;5.28;3.05;;;15.30;97.90;;;;;;5072958;28;20389;-70
2023/09/25 06:21:13;;;;;;;3.85;2.40;;;15.30;97.80;;;;;;5072579;28;20480;-70
2023/09/25 06:23:42;;;;;;;5.55;2.85;;;15.40;97.70;;;;;;5071686;28;20111;-68
2023/09/25 06:26:08;;;;;;;5.93;2.95;;;15.40;97.40;;;;;;5072475;28;20028;-70
2023/09/25 06:28:34;;;;;;;5.93;2.53;;;15.40;97.50;;;;;;5072797;28;20511;-69
2023/09/25 06:31:01;;;;;;;4.70;2.50;;;15.30;97.50;;;;;;5071606;28;20021;-69
2023/09/25 06:33:28;;;;;;;9.32;3.10;;;15.40;97.90;;;;;;5072697;28;20083;-69
2023/09/25 06:35:54;;;;;;;4.82;2.42;;;15.40;97.70;;;;;;5072690;28;20033;-68
2023/09/25 06:38:20;;;;;;;4.47;2.50;;;15.40;97.60;;;;;;5072267;28;20036;-69
2023/09/25 06:40:46;;;;;;;4.60;3.03;;;15.50;97.60;;;;;;5072659;28;20094;-70
2023/09/25 06:43:13;;;;;;;8.05;2.70;;;15.50;97.40;;;;;;5072387;28;20035;-69
2023/09/25 06:45:43;;;;;;;3.75;2.50;;;15.50;97.40;;;;;;5072671;28;20028;-70
2023/09/25 06:48:08;;;;;;;7.57;2.72;;;15.60;97.00;;;;;;5070977;28;20107;-70
2023/09/25 06:50:35;;;;;;;4.65;2.63;;;15.60;96.80;;;;;;5072635;28;20108;-70
2023/09/25 06:53:02;;;;;;;4.30;2.60;;;15.60;96.90;;;;;;5072546;28;20433;-70
2023/09/25 06:55:27;;;;;;;3.03;2.28;;;15.60;96.90;;;;;;5071812;28;20050;-70
2023/09/25 06:57:53;;;;;;;4.38;2.45;;;15.60;96.80;;;;;;5072606;28;20119;-70
2023/09/25 07:00:19;;;;;;;3.85;2.42;;;15.70;97.30;;;;;;5071837;28;20135;-69
2023/09/25 07:02:45;;;;;;;5.28;2.67;;;15.70;97.00;;;;;;5074993;28;20031;-70
2023/09/25 07:05:11;;;;;;;4.97;2.65;;;15.70;97.00;;;;;;5072214;28;20021;-70
2023/09/25 07:07:37;;;;;;;4.40;2.65;;;15.80;96.60;;;;;;5072404;28;20032;-70
2023/09/25 07:10:09;;;;;;;3.63;2.60;;;15.80;96.60;;;;;;5071849;28;20021;-69
2023/09/25 07:12:35;;;;;;;4.25;2.53;;;15.80;96.80;;;;;;5072223;28;20028;-69
2023/09/25 07:15:02;;;;;;;7.93;3.20;;;15.80;96.60;;;;;;5072243;28;20025;-69
2023/09/25 07:17:28;;;;;;;3.15;2.50;;;15.80;96.70;;;;;;5071884;28;20535;-69
2023/09/25 07:19:55;;;;;;;6.47;2.78;;;15.80;96.90;;;;;;5072475;28;20032;-69
2023/09/25 07:22:21;;;;;;;4.15;2.85;;;15.80;97.10;;;;;;5072236;28;20032;-69
2023/09/25 07:24:47;;;;;;;6.80;2.80;;;15.80;97.10;;;;;;5072375;28;20115;-69
2023/09/25 07:27:13;;;;;;;4.38;2.60;;;15.80;97.10;;;;;;5071970;28;20024;-69
2023/09/25 07:29:48;;;;;;;4.13;2.95;;;15.80;97.20;;;;;;5072798;28;20071;-70
2023/09/25 07:32:15;;;;;;;3.95;3.00;;;15.90;97.30;;;;;;5071621;28;20528;-70
2023/09/25 07:34:45;;;;;;;5.75;2.80;;;15.90;97.20;;;;;;5071966;28;20529;-69
2023/09/25 07:37:12;;;;;;;4.20;2.72;;;16.00;97.40;;;;;;5071814;28;20036;-70
2023/09/25 07:39:40;;;;;;;3.10;2.53;;;16.00;97.30;;;;;;5072223;28;20025;-69
2023/09/25 07:42:06;;;;;;;4.18;3.08;;;16.10;97.20;;;;;;5071878;28;20421;-69
2023/09/25 07:44:34;;;;;;;10.48;3.97;;;16.10;97.10;;;;;;5071547;28;20135;-69
2023/09/25 07:47:00;;;;;;;4.22;2.83;;;16.10;97.00;;;;;;5072122;28;20038;-69
2023/09/25 07:49:27;;;;;;;5.00;3.10;;;16.20;97.10;;;;;;5071723;28;20031;-68
2023/09/25 07:51:54;;;;;;;6.82;3.08;;;16.20;97.00;;;;;;5072115;28;20082;-69
2023/09/25 07:54:20;;;;;;;4.55;3.40;;;16.30;97.10;;;;;;5071686;28;20025;-69
2023/09/25 07:56:47;;;;;;;4.90;3.03;;;16.40;96.90;;;;;;5071963;28;20060;-69
2023/09/25 07:59:13;;;;;;;3.88;3.17;;;16.40;96.60;;;;;;5074172;28;20033;-70
2023/09/25 08:01:39;;;;;;;4.05;3.17;;;16.40;96.50;;;;;;5092420;28;20020;-70
2023/09/25 08:04:05;;;;;;;3.83;3.20;;;16.50;96.70;;;;;;5092133;28;20024;-70
2023/09/25 08:06:31;;;;;;;5.30;3.30;;;16.70;96.60;;;;;;5091983;28;20099;-70
2023/09/25 08:08:57;;;;;;;6.93;3.20;;;16.80;96.60;;;;;;5091752;28;20036;-70
2023/09/25 08:11:24;;;;;;;5.57;2.85;;;16.90;95.90;;;;;;5091763;28;20032;-70
2023/09/25 08:13:50;;;;;;;4.68;3.08;;;17.00;95.50;;;;;;5091968;28;20036;-70
2023/09/25 08:16:18;;;;;;;5.00;3.58;;;17.10;95.40;;;;;;5091674;28;20087;-71
2023/09/25 08:18:45;;;;;;;4.47;2.83;;;17.10;95.10;;;;;;5091750;28;20443;-70
2023/09/25 08:21:10;;;;;;;5.03;2.83;;;17.10;95.30;;;;;;5093542;28;20043;-69
2023/09/25 08:23:36;;;;;;;7.38;2.90;;;17.10;94.90;;;;;;5095463;28;20036;-70
2023/09/25 08:26:05;;;;;;;5.93;2.83;;;17.20;95.10;;;;;;5095244;28;20461;-70
2023/09/25 08:28:32;;;;;;;4.38;3.42;;;17.30;95.30;;;;;;5095080;28;20028;-70
2023/09/25 08:30:58;;;;;;;4.53;2.80;;;17.20;95.00;;;;;;5095410;28;20028;-70
2023/09/25 08:33:23;;;;;;;6.00;3.42;;;17.30;95.50;;;;;;5095084;28;20032;-71
2023/09/25 08:35:49;;;;;;;4.88;3.00;;;17.20;94.50;;;;;;5095430;28;20054;-71
2023/09/25 08:38:15;;;;;;;6.57;2.60;;;17.20;94.50;;;;;;5094458;28;20024;-69
2023/09/25 08:40:47;;;;;;;6.03;2.90;;;17.30;94.40;;;;;;5095188;28;20477;-70
2023/09/25 08:43:14;;;;;;;5.72;3.40;;;17.30;94.90;;;;;;5093974;28;20021;-70
2023/09/25 08:45:43;;;;;;;5.15;3.22;;;17.30;94.60;;;;;;5095063;28;20028;-70
2023/09/25 08:48:12;;;;;;;7.50;3.10;;;17.40;94.20;;;;;;5095232;28;20028;-69
2023/09/25 08:50:39;;;;;;;6.50;3.30;;;17.40;94.10;;;;;;5094447;28;20383;-68
2023/09/25 08:53:06;;;;;;;4.88;3.25;;;17.40;94.10;;;;;;5094659;28;20411;-69
2023/09/25 08:55:33;;;;;;;7.47;3.40;;;17.40;94.60;;;;;;5093984;28;20556;-69
2023/09/25 08:58:01;;;;;;;8.52;3.10;;;17.30;94.60;;;;;;5094672;28;20105;-69
2023/09/25 09:00:30;;;;;;;3.45;2.80;;;17.40;94.50;;;;;;5094351;28;20115;-69
2023/09/25 09:02:56;;;;;;;7.72;3.22;;;17.30;94.40;;;;;;5094677;28;20055;-69
2023/09/25 09:05:23;;;;;;;3.65;2.97;;;17.30;94.50;;;;;;5094280;28;20035;-69
2023/09/25 09:08:05;;;;;;;4.15;2.90;;;17.40;94.70;;;;;;5094791;28;20039;-69
2023/09/25 09:10:32;;;;;;;4.00;2.90;;;17.40;94.60;;;;;;5090646;28;20040;-69
2023/09/25 09:12:58;;;;;;;5.95;3.15;;;17.50;94.50;;;;;;5074549;28;20464;-69
2023/09/25 09:15:28;;;;;;;3.25;2.88;;;17.70;94.10;;;;;;5073813;28;20024;-69
2023/09/25 09:17:55;;;;;;;5.93;3.42;;;17.80;93.90;;;;;;5074177;28;20025;-70
2023/09/25 09:20:37;;;;;;;6.10;3.17;;;17.70;93.80;;;;;;5073974;28;20555;-70
2023/09/25 09:23:03;;;;;;;6.30;3.00;;;17.80;93.50;;;;;;5089493;28;20401;-69
2023/09/25 09:25:33;;;;;;;4.57;2.90;;;17.70;93.80;;;;;;5094092;28;20087;-70
2023/09/25 09:27:59;;;;;;;7.18;2.92;;;17.80;93.90;;;;;;5094107;28;20388;-69
2023/09/25 09:30:25;;;;;;;6.93;2.40;;;17.80;93.80;;;;;;5093837;28;20032;-69
2023/09/25 09:32:51;;;;;;;3.80;3.17;;;17.80;94.10;;;;;;5093959;28;20476;-69
2023/09/25 09:35:25;;;;;;;6.20;3.60;;;17.90;93.70;;;;;;5093797;28;20028;-71
2023/09/25 09:37:57;;;;;;;5.03;3.28;;;17.90;93.20;;;;;;5094196;28;20032;-70
2023/09/25 09:40:25;;;;;;;6.90;3.80;;;18.00;93.20;;;;;;5094234;28;20063;-70
2023/09/25 09:42:52;;;;;;;7.38;3.60;;;18.00;93.50;;;;;;5094118;28;20483;-70
2023/09/25 09:45:21;;;;;;;4.18;2.97;;;17.90;93.20;;;;;;5093462;28;20078;-72
2023/09/25 09:47:50;;;;;;;5.13;3.20;;;18.10;93.10;;;;;;5093783;28;20032;-70
2023/09/25 09:50:27;;;;;;;5.35;2.70;;;18.20;93.20;;;;;;5086766;28;20490;-70
2023/09/25 09:52:53;;;;;;;6.05;3.30;;;18.30;92.60;;;;;;5073746;28;20111;-70
2023/09/25 09:55:21;;;;;;;4.70;2.90;;;18.20;92.30;;;;;;5073006;28;20058;-72
2023/09/25 09:57:47;;;;;;;7.15;2.97;;;18.20;92.50;;;;;;5073284;28;20497;-70
2023/09/25 10:00:13;;;;;;;6.72;2.90;;;18.30;92.00;;;;;;5073156;28;20078;-70
2023/09/25 10:02:40;;;;;;;5.80;2.92;;;18.40;92.10;;;;;;5072978;28;20062;-69
2023/09/25 10:05:10;;;;;;;5.07;2.70;;;18.50;92.60;;;;;;5073328;28;20032;-70
2023/09/25 10:08:06;;;;;;;3.55;2.67;;;18.60;92.30;;;;;;5072819;28;20078;-69
2023/09/25 10:10:32;;;;;;;4.63;2.70;;;18.70;91.60;;;;;;5072908;28;20074;-69
2023/09/25 10:12:58;;;;;;;5.35;3.00;;;18.70;91.40;;;;;;5073125;28;20024;-68
2023/09/25 10:15:25;;;;;;;4.25;2.13;;;18.90;91.30;;;;;;5072707;28;20097;-69
2023/09/25 10:17:52;;;;;;;2.83;2.30;;;19.00;90.80;;;;;;5073076;28;20350;-69
2023/09/25 10:20:38;;;;;;;3.65;2.60;;;19.10;90.10;;;;;;5073116;28;20040;-69
2023/09/25 10:23:08;;;;;;;5.20;2.38;;;19.10;90.40;;;;;;5071733;28;20024;-69
2023/09/25 10:25:55;;;;;;;4.90;2.70;;;19.20;90.60;;;;;;5072587;28;20032;-69
2023/09/25 10:28:26;;;;;;;3.75;2.60;;;19.30;89.40;;;;;;5072870;28;20039;-70
2023/09/25 10:30:56;;;;;;;2.67;2.20;;;19.10;90.00;;;;;;5072937;28;20481;-69
2023/09/25 10:33:22;;;;;;;5.05;2.65;;;19.20;90.40;;;;;;5072684;28;20029;-71
2023/09/25 10:35:49;;;;;;;3.58;2.40;;;19.30;89.40;;;;;;5072517;28;20065;-69
2023/09/25 10:38:28;;;;;;;3.70;2.65;;;19.40;88.60;;;;;;5072817;28;20032;-69
2023/09/25 10:40:58;;;;;;;4.20;2.45;;;19.50;89.40;;;;;;5072595;28;20052;-69
2023/09/25 10:43:24;;;;;;;3.77;2.40;;;19.50;88.40;;;;;;5071919;28;20024;-69
2023/09/25 10:45:53;;;;;;;5.75;2.50;;;19.60;88.30;;;;;;5073015;28;20064;-69
2023/09/25 10:48:20;;;;;;;13.98;2.90;;;19.60;88.70;;;;;;5072545;28;20537;-69
2023/09/25 10:50:47;;;;;;;7.78;2.47;;;19.80;88.90;;;;;;5072290;28;20035;-69
2023/09/25 10:53:16;;;;;;;3.20;2.50;;;19.90;88.10;;;;;;5072554;28;20028;-69
2023/09/25 10:55:43;;;;;;;3.25;2.60;;;20.00;88.40;;;;;;5071973;28;20497;-69
2023/09/25 10:58:13;;;;;;;3.42;2.58;;;20.10;88.00;;;;;;5072397;28;20477;-69
2023/09/25 11:00:41;;;;;;;6.23;2.57;;;20.20;87.00;;;;;;5072249;28;20032;-69
2023/09/25 11:03:07;;;;;;;6.03;2.70;;;20.30;86.70;;;;;;5074699;28;20595;-69
2023/09/25 11:05:35;;;;;;;3.42;2.38;;;20.40;86.50;;;;;;5072074;28;20052;-69
2023/09/25 11:08:03;;;;;;;3.40;2.38;;;20.60;86.70;;;;;;5072406;28;20539;-69
2023/09/25 11:10:30;;;;;;;3.85;2.85;;;20.60;85.50;;;;;;5071959;28;20103;-68
2023/09/25 11:12:57;;;;;;;5.13;2.63;;;20.60;83.80;;;;;;5072027;28;20025;-69
2023/09/25 11:15:25;;;;;;;3.85;2.50;;;20.70;84.20;;;;;;5072281;28;20116;-69
2023/09/25 11:17:51;;;;;;;3.65;2.63;;;20.80;83.50;;;;;;5072199;28;20030;-70
2023/09/25 11:20:22;;;;;;;4.32;2.42;;;20.90;83.40;;;;;;5072201;28;20044;-70
2023/09/25 11:22:49;;;;;;;2.65;2.35;;;20.90;82.50;;;;;;5071799;28;20043;-70
2023/09/25 11:25:17;;;;;;;3.90;2.22;;;21.00;82.00;;;;;;5080102;28;20017;-70
2023/09/25 11:27:55;;;;;;;3.47;1.98;;;21.10;82.40;;;;;;5091878;28;20526;-69
2023/09/25 11:30:23;;;;;;;6.13;2.20;;;21.10;80.90;;;;;;5092152;28;20028;-70
2023/09/25 11:32:49;;;;;;;3.65;2.28;;;21.10;80.70;;;;;;5091878;28;20028;-70
2023/09/25 11:35:22;;;;;;;3.65;2.33;;;21.20;79.80;;;;;;5092273;28;20028;-68
2023/09/25 11:38:02;;;;;;;4.78;2.35;;;21.20;79.70;;;;;;5091941;28;20119;-68
2023/09/25 11:40:29;;;;;;;5.45;2.22;;;21.30;79.90;;;;;;5091979;28;20024;-69
2023/09/25 11:42:56;;;;;;;6.30;2.47;;;21.50;79.60;;;;;;5089054;28;20032;-69
2023/09/25 11:45:22;;;;;;;4.10;2.35;;;21.50;80.50;;;;;;5092328;28;20487;-69
2023/09/25 11:47:48;;;;;;;5.78;2.35;;;21.40;79.00;;;;;;5092189;28;20058;-69
2023/09/25 11:50:16;;;;;;;2.10;1.88;;;21.50;79.00;;;;;;5092288;28;20432;-68
2023/09/25 11:52:43;;;;;;;3.35;2.03;;;21.60;78.70;;;;;;5091803;28;20028;-70
2023/09/25 11:55:10;;;;;;;5.90;2.10;;;21.70;78.50;;;;;;5092331;28;20024;-69
2023/09/25 11:57:37;;;;;;;2.47;2.17;;;21.70;78.70;;;;;;5095694;28;20047;-69
2023/09/25 12:00:05;;;;;;;2.65;1.63;;;21.70;77.50;;;;;;5096128;28;20122;-69
2023/09/25 12:02:31;;;;;;;4.15;2.10;;;21.70;77.30;;;;;;5095433;28;20052;-69
2023/09/25 12:04:58;;;;;;;4.53;2.53;;;21.70;77.40;;;;;;5095631;28;20028;-69
2023/09/25 12:07:26;;;;;;;6.45;1.90;;;21.80;77.90;;;;;;5095559;28;20411;-68
2023/09/25 12:09:52;;;;;;;3.20;1.92;;;21.70;77.10;;;;;;5094962;28;20381;-68
2023/09/25 12:12:18;;;;;;;6.90;1.70;;;21.70;77.20;;;;;;5096095;28;20024;-70
2023/09/25 12:14:43;;;;;;;3.58;1.52;;;21.70;77.10;;;;;;5095342;28;20453;-70
2023/09/25 12:17:10;;;;;;;3.15;1.83;;;21.90;78.70;;;;;;5095831;28;20442;-71
2023/09/25 12:19:36;;;;;;;3.50;2.15;;;22.00;77.40;;;;;;5095154;28;20028;-69
2023/09/25 12:22:02;;;;;;;7.47;2.20;;;22.00;76.50;;;;;;5095565;28;20027;-69
2023/09/25 12:24:28;;;;;;;4.95;1.75;;;21.90;76.50;;;;;;5094081;28;20372;-69
2023/09/25 12:26:54;;;;;;;3.53;1.73;;;21.90;76.40;;;;;;5095375;28;20099;-69
2023/09/25 12:29:19;;;;;;;2.80;1.42;;;21.90;76.30;;;;;;5095369;28;20020;-69
2023/09/25 12:31:45;;;;;;;3.33;1.90;;;21.90;76.40;;;;;;5095083;28;20024;-70
2023/09/25 12:34:11;;;;;;;5.35;2.03;;;21.90;76.00;;;;;;5095265;28;20020;-69
2023/09/25 12:36:37;;;;;;;3.42;2.00;;;21.80;76.10;;;;;;5094907;28;20028;-69
2023/09/25 12:39:03;;;;;;;2.13;1.83;;;21.80;75.80;;;;;;5094748;28;20036;-68
2023/09/25 12:41:31;;;;;;;4.85;1.75;;;21.80;76.00;;;;;;5095144;28;20051;-69
2023/09/25 12:43:56;;;;;;;4.90;2.00;;;21.70;75.90;;;;;;5095186;28;20028;-69